Terminal Aerodrome Forecast
Issued by NWS King Salmon, AK

Home | Current Version | Previous Version | Text Only | Print | Product List | Glossary On
Versions: 1 2 3 4 5 6 7 8 9 10 11 12 13 14 15 16 17 18 19 20 21 22
000
FTAK31 PANC 240538
TAFAKN
TAF
PAKN 240538Z 2406/2506 18018KT 6SM -RASN BR SCT006 BKN015
      WS020/27040KT
      TEMPO 2406/2410 24011G22KT 4SM -SHSNRA BR BKN006
     FM241000 24011G22KT 6SM -SHSN BR SCT007 BKN015 OVC025
      WS020/27045KT
     FM241500 25018G30KT 6SM -SHSN BR SCT015 BKN100
     FM242100 27020G35KT P6SM SCT025 BKN050=

USA.gov is the U.S. government's official web portal to all federal, state and local government web resources and services.